createdAt,value
2022-07-27T00:01:17.411Z,13.60
2022-07-27T00:03:46.508Z,13.70
2022-07-27T00:06:14.858Z,14.50
2022-07-27T00:08:42.822Z,14.00
2022-07-27T00:11:11.615Z,13.60
2022-07-27T00:13:40.730Z,13.70
2022-07-27T00:16:09.225Z,13.70
2022-07-27T00:18:38.725Z,13.80
2022-07-27T00:21:06.619Z,13.80
2022-07-27T00:23:35.107Z,13.80
2022-07-27T00:26:03.091Z,13.80
2022-07-27T00:28:31.071Z,13.80
2022-07-27T00:30:59.045Z,14.40
2022-07-27T00:33:27.028Z,13.80
2022-07-27T00:35:56.335Z,13.80
2022-07-27T00:38:24.246Z,13.80
2022-07-27T00:40:52.240Z,13.80
2022-07-27T00:43:20.785Z,13.80
2022-07-27T00:45:48.828Z,13.70
2022-07-27T00:48:16.812Z,13.70
2022-07-27T00:50:46.911Z,13.70
2022-07-27T00:53:16.847Z,13.70
2022-07-27T00:55:45.289Z,13.70
2022-07-27T00:58:13.782Z,13.70
2022-07-27T01:00:41.697Z,13.50
2022-07-27T01:03:10.002Z,13.60
2022-07-27T01:05:42.693Z,13.50
2022-07-27T01:08:13.699Z,13.40
2022-07-27T01:10:44.468Z,13.40
2022-07-27T01:13:13.747Z,13.30
2022-07-27T01:15:43.552Z,13.20
2022-07-27T01:18:13.165Z,13.20
2022-07-27T01:20:42.230Z,13.10
2022-07-27T01:23:11.624Z,13.10
2022-07-27T01:25:42.188Z,13.00
2022-07-27T01:28:10.474Z,13.00
2022-07-27T01:30:38.375Z,12.90
2022-07-27T01:33:09.072Z,13.00
2022-07-27T01:35:38.500Z,13.00
2022-07-27T01:38:07.302Z,12.90
2022-07-27T01:40:37.608Z,12.90
2022-07-27T01:43:06.099Z,12.80
2022-07-27T01:50:30.890Z,12.90
2022-07-27T01:52:58.832Z,12.90
2022-07-27T01:55:26.782Z,12.90
2022-07-27T01:58:00.419Z,12.80
2022-07-27T02:00:28.490Z,12.90
2022-07-27T02:02:56.463Z,12.90
2022-07-27T02:05:24.496Z,12.80
2022-07-27T02:07:52.539Z,12.80
2022-07-27T02:10:20.536Z,12.70
2022-07-27T02:12:47.531Z,12.70
2022-07-27T02:15:19.448Z,12.60
2022-07-27T02:17:49.344Z,12.70
2022-07-27T02:20:21.036Z,12.60
2022-07-27T02:22:49.398Z,12.60
2022-07-27T02:25:19.152Z,12.60
2022-07-27T02:27:48.440Z,12.60
2022-07-27T02:30:18.018Z,12.70
2022-07-27T02:32:46.172Z,12.80
2022-07-27T02:35:18.632Z,12.70
2022-07-27T02:37:47.231Z,12.80
2022-07-27T02:40:17.465Z,12.80
2022-07-27T02:42:45.771Z,12.80
2022-07-27T02:45:13.767Z,12.90
2022-07-27T02:47:43.273Z,12.90
2022-07-27T02:50:11.728Z,12.90
2022-07-27T02:52:39.985Z,12.90
2022-07-27T02:55:09.031Z,12.50
2022-07-27T02:57:40.773Z,12.80
2022-07-27T03:00:11.446Z,12.80
2022-07-27T03:02:39.641Z,12.70
2022-07-27T03:05:10.390Z,13.00
2022-07-27T03:07:38.543Z,12.60
2022-07-27T03:10:07.601Z,12.50
2022-07-27T03:12:35.575Z,12.40
2022-07-27T03:15:03.597Z,13.40
2022-07-27T03:17:32.829Z,12.40
2022-07-27T03:20:00.820Z,12.40
2022-07-27T03:22:32.536Z,12.30
2022-07-27T03:25:00.522Z,12.30
2022-07-27T03:27:29.350Z,12.20
2022-07-27T03:29:57.374Z,12.40
2022-07-27T03:32:25.411Z,12.20
2022-07-27T03:34:53.385Z,12.10
2022-07-27T03:37:21.297Z,12.10
2022-07-27T03:39:50.570Z,12.10
2022-07-27T03:42:18.810Z,12.00
2022-07-27T03:44:46.734Z,12.10
2022-07-27T03:47:14.620Z,12.10
2022-07-27T03:49:42.543Z,12.10
2022-07-27T03:52:15.680Z,12.10
2022-07-27T03:54:45.505Z,12.10
2022-07-27T03:57:15.028Z,12.10
2022-07-27T03:59:43.012Z,12.10
2022-07-27T04:02:11.129Z,12.10
2022-07-27T04:04:39.131Z,12.20
2022-07-27T04:07:07.752Z,12.20
2022-07-27T04:09:36.078Z,12.20
2022-07-27T04:12:04.506Z,12.30
2022-07-27T04:14:34.289Z,12.30
2022-07-27T04:17:02.542Z,12.30
2022-07-27T04:19:30.817Z,12.40
2022-07-27T04:21:58.757Z,12.40
2022-07-27T04:24:26.651Z,12.50
2022-07-27T04:26:54.522Z,12.50
2022-07-27T04:29:23.091Z,12.50
2022-07-27T04:31:52.826Z,12.60
2022-07-27T04:34:21.217Z,12.60
2022-07-27T04:36:50.038Z,13.20
2022-07-27T04:39:18.057Z,12.70
2022-07-27T04:41:46.980Z,11.50
2022-07-27T04:44:15.046Z,12.90
2022-07-27T04:46:43.310Z,12.80
2022-07-27T04:49:13.085Z,13.10
2022-07-27T04:51:43.830Z,13.10
2022-07-27T04:54:12.285Z,13.20
2022-07-27T04:56:40.204Z,13.20
2022-07-27T04:59:08.295Z,13.40
2022-07-27T05:01:37.009Z,13.40
2022-07-27T05:04:05.501Z,13.50
2022-07-27T05:06:37.522Z,13.50
2022-07-27T05:09:05.436Z,13.50
2022-07-27T05:11:33.479Z,13.00
2022-07-27T05:14:02.400Z,13.70
2022-07-27T05:16:30.317Z,13.80
2022-07-27T05:18:58.438Z,13.80
2022-07-27T05:21:27.369Z,13.90
2022-07-27T05:23:56.712Z,14.10
2022-07-27T05:26:24.875Z,15.70
2022-07-27T05:28:53.189Z,14.30
2022-07-27T05:31:21.286Z,14.60
2022-07-27T05:33:54.655Z,16.20
2022-07-27T05:36:25.874Z,15.20
2022-07-27T05:38:53.884Z,16.10
2022-07-27T05:41:25.617Z,15.70
2022-07-27T05:43:55.180Z,17.10
2022-07-27T05:46:23.425Z,16.20
2022-07-27T05:48:51.475Z,16.60
2022-07-27T05:51:19.639Z,17.10
2022-07-27T05:53:47.586Z,17.20
2022-07-27T05:56:15.516Z,17.20
2022-07-27T05:58:44.846Z,17.30
2022-07-27T06:01:12.943Z,17.30
2022-07-27T06:03:41.027Z,17.30
2022-07-27T06:06:26.673Z,17.30
2022-07-27T06:08:55.227Z,17.50
2022-07-27T06:11:23.458Z,17.50
2022-07-27T06:13:52.894Z,17.60
2022-07-27T06:16:20.989Z,17.90
2022-07-27T06:18:49.293Z,18.30
2022-07-27T06:21:17.670Z,18.40
2022-07-27T06:23:48.324Z,18.60
2022-07-27T06:26:16.352Z,18.80
2022-07-27T06:28:44.368Z,19.00
2022-07-27T06:31:15.133Z,18.90
2022-07-27T06:33:43.436Z,19.00
2022-07-27T06:36:14.140Z,19.10
2022-07-27T06:38:42.193Z,19.40
2022-07-27T06:41:10.152Z,19.60
2022-07-27T06:43:38.288Z,19.80
2022-07-27T06:46:07.582Z,20.40
2022-07-27T06:48:37.154Z,20.10
2022-07-27T06:51:05.308Z,20.00
2022-07-27T06:53:36.457Z,20.10
2022-07-27T06:56:06.047Z,20.30
2022-07-27T06:58:34.894Z,20.50
2022-07-27T07:01:03.745Z,20.70
2022-07-27T07:03:32.153Z,20.90
2022-07-27T07:06:01.657Z,21.10
2022-07-27T07:08:29.654Z,21.30
2022-07-27T07:10:57.994Z,21.80
2022-07-27T07:13:25.987Z,21.60
2022-07-27T07:15:54.131Z,21.10
2022-07-27T07:18:22.248Z,20.40
2022-07-27T07:20:50.221Z,20.20
2022-07-27T07:23:19.645Z,20.50
2022-07-27T07:25:48.010Z,20.90
2022-07-27T07:28:16.015Z,21.40
2022-07-27T07:30:44.267Z,21.80
2022-07-27T07:33:12.232Z,22.30
2022-07-27T07:36:13.209Z,22.60
2022-07-27T07:38:31.214Z,22.30
2022-07-27T07:40:59.304Z,21.60
2022-07-27T07:43:27.785Z,21.50
2022-07-27T07:45:57.016Z,21.30
2022-07-27T07:48:25.101Z,21.30
2022-07-27T07:50:53.988Z,21.20
2022-07-27T07:53:22.672Z,20.70
2022-07-27T07:55:52.913Z,21.20
2022-07-27T07:58:21.248Z,19.80
2022-07-27T08:00:49.391Z,19.00
2022-07-27T08:03:17.610Z,19.00
2022-07-27T08:05:45.910Z,19.60
2022-07-27T08:08:14.000Z,18.60
2022-07-27T08:10:45.463Z,18.50
2022-07-27T08:13:22.282Z,18.40
2022-07-27T08:15:53.515Z,18.30
2022-07-27T08:18:22.313Z,18.20
2022-07-27T08:20:50.813Z,19.30
2022-07-27T08:23:18.967Z,18.40
2022-07-27T08:25:47.249Z,18.30
2022-07-27T08:28:15.430Z,18.40
2022-07-27T08:30:45.982Z,18.40
2022-07-27T08:33:14.080Z,18.60
2022-07-27T08:35:42.584Z,18.70
2022-07-27T08:38:10.907Z,18.80
2022-07-27T08:40:43.655Z,19.30
2022-07-27T08:43:21.941Z,19.10
2022-07-27T08:45:59.383Z,19.30
2022-07-27T08:48:28.683Z,19.30
2022-07-27T08:50:57.261Z,19.60
2022-07-27T08:53:25.796Z,20.30
2022-07-27T08:55:56.781Z,21.10
2022-07-27T08:58:24.899Z,22.10
2022-07-27T09:00:53.447Z,23.20
2022-07-27T09:03:25.099Z,23.80
2022-07-27T09:05:55.201Z,23.50
2022-07-27T09:08:26.442Z,22.90
2022-07-27T09:10:55.897Z,22.10
2022-07-27T09:13:26.287Z,21.40
2022-07-27T09:16:17.445Z,20.60
2022-07-27T09:18:45.740Z,20.00
2022-07-27T09:21:16.769Z,19.50
2022-07-27T09:23:48.147Z,19.20
2022-07-27T09:26:31.756Z,19.00
2022-07-27T09:29:03.993Z,18.90
2022-07-27T09:31:32.754Z,18.90
2022-07-27T09:34:03.916Z,18.90
2022-07-27T09:36:32.337Z,18.90
2022-07-27T09:39:03.497Z,19.70
2022-07-27T09:41:43.094Z,19.10
2022-07-27T09:44:31.377Z,19.20
2022-07-27T09:47:00.832Z,19.50
2022-07-27T09:49:32.118Z,20.20
2022-07-27T09:52:02.429Z,21.30
2022-07-27T09:54:44.180Z,21.80
2022-07-27T09:57:12.243Z,21.80
2022-07-27T09:59:40.512Z,21.60
2022-07-27T10:02:09.408Z,21.40
2022-07-27T10:04:39.058Z,21.20
2022-07-27T10:07:12.679Z,21.20
2022-07-27T10:09:42.042Z,21.20
2022-07-27T10:12:10.683Z,21.20
2022-07-27T10:14:38.725Z,21.30
2022-07-27T10:17:07.636Z,21.50
2022-07-27T10:19:42.469Z,21.70
2022-07-27T10:22:11.923Z,22.60
2022-07-27T10:24:39.892Z,22.10
2022-07-27T10:27:20.706Z,22.60
2022-07-27T10:29:49.451Z,23.10
2022-07-27T10:32:25.444Z,23.40
2022-07-27T10:34:53.532Z,23.80
2022-07-27T10:37:27.826Z,24.40
2022-07-27T10:40:11.812Z,24.40
2022-07-27T10:42:40.649Z,23.30
2022-07-27T10:45:10.601Z,22.80
2022-07-27T10:47:41.849Z,22.60
2022-07-27T10:50:37.222Z,22.30
2022-07-27T10:53:11.172Z,22.10
2022-07-27T10:55:49.037Z,21.80
2022-07-27T10:58:46.101Z,21.70
2022-07-27T11:01:15.828Z,21.60
2022-07-27T11:03:49.412Z,21.50
2022-07-27T11:06:34.980Z,21.50
2022-07-27T11:11:55.862Z,21.80
2022-07-27T11:14:30.541Z,21.70
2022-07-27T11:19:53.594Z,21.10
2022-07-27T11:22:53.617Z,20.80
2022-07-27T11:25:20.138Z,20.50
2022-07-27T11:27:49.166Z,20.10
2022-07-27T11:30:25.117Z,20.00
2022-07-27T11:32:53.656Z,19.90
2022-07-27T11:35:21.921Z,20.60
2022-07-27T11:38:01.306Z,20.10
2022-07-27T11:41:12.734Z,20.30
2022-07-27T11:43:37.216Z,20.50
2022-07-27T11:46:17.590Z,21.00
2022-07-27T11:49:06.200Z,21.40
2022-07-27T11:51:35.820Z,21.70
2022-07-27T11:54:05.426Z,22.10
2022-07-27T11:56:36.128Z,22.80
2022-07-27T11:59:10.421Z,23.80
2022-07-27T12:01:39.736Z,24.70
2022-07-27T12:04:12.744Z,26.20
2022-07-27T12:06:42.896Z,26.50
2022-07-27T12:09:14.199Z,27.10
2022-07-27T12:11:50.531Z,27.70
2022-07-27T12:14:19.362Z,28.00
2022-07-27T12:16:47.696Z,28.50
2022-07-27T12:19:23.384Z,28.30
2022-07-27T12:21:55.342Z,27.30
2022-07-27T12:24:34.093Z,25.80
2022-07-27T12:27:06.787Z,24.60
2022-07-27T12:29:35.362Z,23.90
2022-07-27T12:32:05.087Z,23.40
2022-07-27T12:34:34.224Z,22.90
2022-07-27T12:37:02.270Z,22.50
2022-07-27T12:39:30.521Z,22.30
2022-07-27T12:42:07.316Z,22.30
2022-07-27T12:44:36.637Z,22.50
2022-07-27T12:47:25.313Z,22.70
2022-07-27T12:50:02.935Z,22.70
2022-07-27T12:52:31.261Z,23.60
2022-07-27T12:54:59.603Z,25.00
2022-07-27T12:57:54.198Z,26.40
2022-07-27T13:00:19.388Z,27.40
2022-07-27T13:02:47.708Z,27.50
2022-07-27T13:05:16.963Z,27.70
2022-07-27T13:07:47.797Z,26.80
2022-07-27T13:10:18.925Z,26.30
2022-07-27T13:12:49.216Z,25.90
2022-07-27T13:15:17.659Z,25.20
2022-07-27T13:17:47.176Z,24.60
2022-07-27T13:20:16.271Z,23.90
2022-07-27T13:22:45.757Z,23.40
2022-07-27T13:25:16.075Z,23.00
2022-07-27T13:27:45.570Z,22.70
2022-07-27T13:30:17.126Z,22.50
2022-07-27T13:32:46.706Z,22.50
2022-07-27T13:35:16.638Z,22.80
2022-07-27T13:37:45.235Z,23.70
2022-07-27T13:40:13.758Z,24.80
2022-07-27T13:42:41.950Z,25.70
2022-07-27T13:45:11.895Z,26.60
2022-07-27T13:47:42.599Z,27.30
2022-07-27T13:50:18.379Z,27.90
2022-07-27T13:52:47.685Z,27.60
2022-07-27T13:55:16.529Z,26.40
2022-07-27T13:57:44.702Z,25.30
2022-07-27T14:00:13.781Z,24.30
2022-07-27T14:02:43.365Z,23.60
2022-07-27T14:05:14.408Z,24.10
2022-07-27T14:07:43.463Z,25.00
2022-07-27T14:10:30.859Z,26.00
2022-07-27T14:13:08.242Z,26.80
2022-07-27T14:15:52.794Z,27.30
2022-07-27T14:18:25.675Z,28.60
2022-07-27T14:20:54.430Z,28.10
2022-07-27T14:23:22.604Z,28.20
2022-07-27T14:25:50.559Z,27.50
2022-07-27T14:28:18.630Z,26.40
2022-07-27T14:30:47.192Z,25.40
2022-07-27T14:33:15.430Z,24.80
2022-07-27T14:35:45.299Z,24.40
2022-07-27T14:38:13.687Z,24.00
2022-07-27T14:40:53.576Z,23.60
2022-07-27T14:43:22.519Z,23.30
2022-07-27T14:45:51.906Z,23.00
2022-07-27T14:48:36.846Z,22.80
2022-07-27T14:51:11.216Z,22.60
2022-07-27T14:53:39.094Z,22.40
2022-07-27T14:56:07.123Z,22.30
2022-07-27T14:58:35.065Z,22.30
2022-07-27T15:01:03.329Z,22.20
2022-07-27T15:03:31.824Z,22.30
2022-07-27T15:05:59.922Z,22.90
2022-07-27T15:08:29.221Z,24.00
2022-07-27T15:10:57.297Z,25.10
2022-07-27T15:13:25.827Z,26.00
2022-07-27T15:15:54.630Z,26.20
2022-07-27T15:18:23.828Z,25.80
2022-07-27T15:20:51.822Z,25.20
2022-07-27T15:23:20.102Z,24.60
2022-07-27T15:25:49.540Z,23.80
2022-07-27T15:28:17.445Z,23.20
2022-07-27T15:30:45.591Z,22.80
2022-07-27T15:33:13.573Z,22.30
2022-07-27T15:35:41.461Z,22.30
2022-07-27T15:38:09.488Z,22.10
2022-07-27T15:40:41.613Z,21.50
2022-07-27T15:43:12.420Z,22.00
2022-07-27T15:45:41.243Z,22.00
2022-07-27T15:48:10.836Z,21.90
2022-07-27T15:50:40.340Z,21.90
2022-07-27T15:53:08.761Z,21.90
2022-07-27T15:55:39.226Z,21.80
2022-07-27T15:58:08.806Z,21.80
2022-07-27T16:00:40.962Z,21.80
2022-07-27T16:03:09.994Z,21.70
2022-07-27T16:05:38.329Z,21.60
2022-07-27T16:08:09.024Z,21.50
2022-07-27T16:10:37.035Z,21.40
2022-07-27T16:13:05.997Z,21.20
2022-07-27T16:15:51.961Z,21.20
2022-07-27T16:18:21.315Z,21.10
2022-07-27T16:20:49.332Z,21.00
2022-07-27T16:23:19.093Z,21.10
2022-07-27T16:26:08.146Z,21.30
2022-07-27T16:28:38.618Z,21.60
2022-07-27T16:31:08.110Z,21.90
2022-07-27T16:33:37.466Z,22.10
2022-07-27T16:36:08.294Z,22.10
2022-07-27T16:38:36.956Z,21.90
2022-07-27T16:41:07.401Z,21.70
2022-07-27T16:43:38.606Z,21.50
2022-07-27T16:46:10.123Z,21.20
2022-07-27T16:48:41.983Z,21.10
2022-07-27T16:51:14.536Z,21.00
2022-07-27T16:53:44.300Z,21.00
2022-07-27T16:56:12.789Z,21.10
2022-07-27T16:58:41.291Z,21.20
2022-07-27T17:01:09.994Z,21.30
2022-07-27T17:03:51.846Z,21.40
2022-07-27T17:06:20.951Z,21.50
2022-07-27T17:08:49.068Z,21.60
2022-07-27T17:11:21.642Z,21.50
2022-07-27T17:13:50.964Z,21.40
2022-07-27T17:16:27.480Z,21.30
2022-07-27T17:18:57.001Z,21.10
2022-07-27T17:21:25.047Z,20.90
2022-07-27T17:23:53.029Z,20.80
2022-07-27T17:26:24.764Z,21.10
2022-07-27T17:28:53.734Z,20.40
2022-07-27T17:31:22.363Z,20.20
2022-07-27T17:33:51.018Z,20.00
2022-07-27T17:36:20.616Z,19.90
2022-07-27T17:38:49.429Z,21.20
2022-07-27T17:41:24.128Z,19.50
2022-07-27T17:43:53.357Z,19.40
2022-07-27T17:46:21.953Z,19.30
2022-07-27T17:48:50.208Z,19.40
2022-07-27T17:51:18.522Z,19.20
2022-07-27T17:53:47.841Z,19.10
2022-07-27T17:56:15.851Z,19.00
2022-07-27T17:58:43.812Z,18.40
2022-07-27T18:01:11.782Z,18.70
2022-07-27T18:03:40.148Z,18.60
2022-07-27T18:06:08.269Z,18.50
2022-07-27T18:08:36.717Z,18.40
2022-07-27T18:11:06.970Z,18.40
2022-07-27T18:13:39.642Z,18.30
2022-07-27T18:16:11.623Z,18.20
2022-07-27T18:18:40.461Z,18.10
2022-07-27T18:21:10.534Z,18.00
2022-07-27T18:23:38.940Z,17.90
2022-07-27T18:26:10.038Z,16.70
2022-07-27T18:28:40.053Z,17.70
2022-07-27T18:31:10.058Z,17.60
2022-07-27T18:33:40.239Z,17.50
2022-07-27T18:36:08.584Z,17.40
2022-07-27T18:38:36.500Z,17.30
2022-07-27T18:41:04.632Z,17.80
2022-07-27T18:43:34.068Z,17.10
2022-07-27T18:46:02.650Z,17.00
2022-07-27T18:48:30.757Z,16.10
2022-07-27T18:50:58.669Z,16.80
2022-07-27T18:53:26.648Z,16.70
2022-07-27T18:55:56.734Z,16.60
2022-07-27T18:58:25.756Z,16.20
2022-07-27T19:00:55.637Z,16.50
2022-07-27T19:03:24.728Z,16.30
2022-07-27T19:05:55.913Z,16.80
2022-07-27T19:08:24.658Z,16.10
2022-07-27T19:10:52.929Z,16.00
2022-07-27T19:13:21.097Z,15.80
2022-07-27T19:15:49.051Z,15.70
2022-07-27T19:18:18.313Z,15.60
2022-07-27T19:20:46.263Z,15.50
2022-07-27T19:23:14.275Z,15.40
2022-07-27T19:25:42.342Z,15.30
2022-07-27T19:28:10.242Z,15.20
2022-07-27T19:30:39.199Z,15.10
2022-07-27T19:33:07.131Z,14.90
2022-07-27T19:35:36.368Z,14.80
2022-07-27T19:38:04.685Z,14.60
2022-07-27T19:40:44.208Z,14.50
2022-07-27T19:43:13.341Z,14.40
2022-07-27T19:45:42.175Z,14.40
2022-07-27T19:48:10.484Z,14.10
2022-07-27T19:50:39.934Z,14.00
2022-07-27T19:53:07.988Z,13.80
2022-07-27T19:55:35.986Z,13.70
2022-07-27T19:58:04.125Z,13.50
2022-07-27T20:00:32.343Z,13.40
2022-07-27T20:03:00.702Z,13.30
2022-07-27T20:05:29.107Z,13.20
2022-07-27T20:07:58.358Z,13.10
2022-07-27T20:10:26.524Z,13.00
2022-07-27T20:12:54.546Z,12.90
2022-07-27T20:15:22.761Z,12.80
2022-07-27T20:17:50.909Z,12.70
2022-07-27T20:20:19.533Z,12.60
2022-07-27T20:22:47.501Z,12.60
2022-07-27T20:25:18.463Z,12.50
2022-07-27T20:27:46.671Z,12.40
2022-07-27T20:30:17.268Z,11.80
2022-07-27T20:32:45.730Z,12.30
2022-07-27T20:35:13.839Z,12.30
2022-07-27T20:40:11.812Z,12.30
2022-07-27T20:42:41.729Z,12.30
2022-07-27T20:45:11.471Z,12.30
2022-07-27T20:47:39.803Z,12.20
2022-07-27T20:50:09.330Z,12.20
2022-07-27T20:52:37.298Z,12.20
2022-07-27T20:55:06.058Z,12.20
2022-07-27T20:57:34.055Z,12.10
2022-07-27T21:00:03.659Z,12.00
2022-07-27T21:02:31.645Z,11.90
2022-07-27T21:04:59.734Z,11.90
2022-07-27T21:07:28.213Z,11.80
2022-07-27T21:09:56.980Z,11.80
2022-07-27T21:12:24.881Z,11.70
2022-07-27T21:14:52.906Z,11.70
2022-07-27T21:17:23.226Z,11.60
2022-07-27T21:19:51.159Z,11.60
2022-07-27T21:22:20.608Z,11.60
2022-07-27T21:24:49.564Z,11.50
2022-07-27T21:27:21.011Z,11.40
2022-07-27T21:29:49.530Z,11.40
2022-07-27T21:32:17.657Z,11.40
2022-07-27T21:34:46.973Z,11.90
2022-07-27T21:37:14.918Z,11.40
2022-07-27T21:39:45.830Z,11.40
2022-07-27T21:42:14.240Z,11.40
2022-07-27T21:44:42.255Z,11.50
2022-07-27T21:47:13.808Z,11.80
2022-07-27T21:49:42.560Z,11.60
2022-07-27T21:52:12.100Z,11.80
2022-07-27T21:54:40.157Z,12.00
2022-07-27T21:57:08.246Z,12.20
2022-07-27T21:59:39.197Z,12.40
2022-07-27T22:02:07.161Z,12.60
2022-07-27T22:04:35.454Z,12.70
2022-07-27T22:07:04.844Z,12.80
2022-07-27T22:09:34.152Z,12.90
2022-07-27T22:12:02.154Z,12.90
2022-07-27T22:14:30.045Z,13.00
2022-07-27T22:17:00.030Z,13.10
2022-07-27T22:19:28.114Z,13.10
2022-07-27T22:21:56.027Z,13.20
2022-07-27T22:24:23.917Z,13.20
2022-07-27T22:26:53.237Z,13.20
2022-07-27T22:29:21.163Z,13.20
2022-07-27T22:31:49.147Z,12.80
2022-07-27T22:34:17.653Z,13.20
2022-07-27T22:36:45.748Z,13.20
2022-07-27T22:39:13.807Z,14.20
2022-07-27T22:41:41.684Z,13.20
2022-07-27T22:44:11.831Z,13.30
2022-07-27T22:46:40.036Z,13.80
2022-07-27T22:49:09.652Z,13.30
2022-07-27T22:51:49.608Z,13.30
2022-07-27T22:54:20.850Z,13.30
2022-07-27T22:56:49.099Z,13.30
2022-07-27T22:59:18.399Z,13.20
2022-07-27T23:01:48.268Z,13.20
2022-07-27T23:04:17.720Z,13.20
2022-07-27T23:06:46.482Z,13.20
2022-07-27T23:09:14.553Z,13.10
2022-07-27T23:11:42.525Z,13.10
2022-07-27T23:14:10.749Z,13.10
2022-07-27T23:16:40.527Z,13.10
2022-07-27T23:19:08.792Z,13.10
2022-07-27T23:21:37.430Z,13.10
2022-07-27T23:24:05.808Z,13.00
2022-07-27T23:26:33.780Z,13.00
2022-07-27T23:29:02.121Z,12.90
2022-07-27T23:31:30.189Z,12.80
2022-07-27T23:33:59.607Z,12.70
2022-07-27T23:36:27.572Z,13.30
2022-07-27T23:38:55.597Z,12.50
2022-07-27T23:41:23.555Z,11.40
2022-07-27T23:43:51.558Z,12.40
2022-07-27T23:46:19.613Z,12.40
2022-07-27T23:48:47.608Z,12.30
2022-07-27T23:51:19.583Z,12.30
2022-07-27T23:53:47.924Z,12.30
2022-07-27T23:56:15.916Z,12.70
2022-07-27T23:58:44.858Z,12.30
